SBRJ/SDU METAR and TAF weather

Enter ICAO airport designator
Station Type Date Time Source
SBRJ METAR 2022/07/03 15:00 UTC NOAA

SBRJ 031500Z 01006KT 9000 NSC 24/19 Q1021


Station Type Date Time Source
SBRJ Decoded METAR 2022/07/03 15:00 UTC NOAA

Rio De Janeiro Aeroporto , Brazil (SBRJ) 22-54S 043-10W
Jul 03, 2022 - 11:00 AM EDT / 2022.07.03 1500 UTC
Wind: from the N (010 degrees) at 7 MPH (6 KT):0
Visibility: 5 mile(s):0
Temperature: 75 F (24 C)
Dew Point: 66 F (19 C)
Relative Humidity: 73%
Pressure (altimeter): 30.15 in. Hg (1021 hPa)
ob: SBRJ 031500Z 01006KT 9000 NSC 24/19 Q1021
cycle: 15

Station Type Date Time Source
SBRJ TAF 2022/07/03 18:03 UTC NOAA

TAF SBRJ 031500Z 0318/0406 16005KT 9999 FEW020 TX26/0318Z TN22/0406Z
BECMG 0400/0402 09005KT
RMK PHD

Example: see airport list